createdAt,value
2017-09-18T00:01:37.360Z,1.40
2017-09-18T00:04:04.846Z,1.63
2017-09-18T00:06:32.353Z,1.53
2017-09-18T00:08:59.865Z,1.43
2017-09-18T00:11:27.372Z,1.20
2017-09-18T00:13:54.880Z,1.63
2017-09-18T00:16:23.152Z,1.50
2017-09-18T00:18:50.680Z,1.43
2017-09-18T00:21:18.184Z,1.40
2017-09-18T00:23:46.471Z,1.40
2017-09-18T00:26:14.748Z,1.60
2017-09-18T00:28:43.001Z,1.20
2017-09-18T00:31:10.515Z,1.30
2017-09-18T00:33:38.002Z,1.60
2017-09-18T00:36:05.525Z,1.20
2017-09-18T00:38:33.020Z,1.50
2017-09-18T00:41:00.545Z,1.33
2017-09-18T00:43:28.036Z,1.20
2017-09-18T00:45:55.556Z,1.30
2017-09-18T00:48:23.103Z,1.33
2017-09-18T00:50:50.601Z,1.00
2017-09-18T00:53:18.132Z,1.10
2017-09-18T00:55:45.652Z,0.83
2017-09-18T00:58:13.938Z,0.90
2017-09-18T01:00:41.436Z,0.80
2017-09-18T01:03:08.962Z,1.00
2017-09-18T01:05:36.457Z,1.33
2017-09-18T01:08:03.969Z,0.90
2017-09-18T01:10:31.547Z,1.00
2017-09-18T01:12:59.039Z,1.20
2017-09-18T01:15:26.565Z,1.10
2017-09-18T01:17:54.072Z,1.10
2017-09-18T01:20:22.377Z,1.13
2017-09-18T01:22:49.888Z,0.93
2017-09-18T01:25:17.404Z,1.17
2017-09-18T01:27:44.919Z,1.30
2017-09-18T01:30:12.408Z,0.90
2017-09-18T01:32:39.920Z,1.10
2017-09-18T01:35:07.412Z,1.30
2017-09-18T01:37:34.940Z,1.20
2017-09-18T01:40:03.221Z,1.30
2017-09-18T01:42:31.515Z,1.37
2017-09-18T01:44:59.777Z,1.40
2017-09-18T01:47:28.063Z,1.00
2017-09-18T01:49:56.340Z,1.17
2017-09-18T01:52:23.841Z,1.17
2017-09-18T01:54:51.357Z,1.00
2017-09-18T01:57:18.893Z,1.20
2017-09-18T01:59:47.201Z,1.30
2017-09-18T02:02:14.713Z,1.60
2017-09-18T02:04:42.213Z,1.67
2017-09-18T02:07:09.753Z,1.43
2017-09-18T02:09:38.029Z,1.50
2017-09-18T02:12:06.296Z,1.93
2017-09-18T02:14:34.689Z,1.50
2017-09-18T02:17:02.232Z,1.77
2017-09-18T02:19:30.502Z,1.80
2017-09-18T02:21:58.772Z,1.93
2017-09-18T02:24:26.303Z,1.97
2017-09-18T02:26:53.803Z,2.27
2017-09-18T02:29:22.081Z,1.30
2017-09-18T02:31:50.352Z,1.37
2017-09-18T02:34:18.661Z,1.50
2017-09-18T02:36:46.178Z,2.40
2017-09-18T02:39:14.440Z,1.63
2017-09-18T02:41:41.975Z,1.50
2017-09-18T02:44:09.462Z,2.07
2017-09-18T02:46:36.983Z,1.93
2017-09-18T02:49:04.476Z,1.87
2017-09-18T02:51:31.970Z,2.00
2017-09-18T02:53:59.477Z,1.83
2017-09-18T02:56:26.977Z,1.87
2017-09-18T02:58:54.500Z,1.73
2017-09-18T03:01:22.000Z,1.70
2017-09-18T03:03:49.551Z,2.07
2017-09-18T03:06:17.060Z,2.13
2017-09-18T03:08:44.559Z,1.87
2017-09-18T03:11:12.097Z,1.70
2017-09-18T03:13:40.365Z,2.50
2017-09-18T03:16:07.889Z,1.60
2017-09-18T03:18:35.385Z,2.00
2017-09-18T03:21:03.677Z,2.00
2017-09-18T03:23:31.969Z,2.00
2017-09-18T03:25:59.453Z,1.90
2017-09-18T03:28:26.978Z,1.73
2017-09-18T03:30:54.528Z,1.40
2017-09-18T03:33:22.800Z,1.60
2017-09-18T03:35:51.061Z,1.30
2017-09-18T03:38:19.353Z,1.87
2017-09-18T03:40:47.609Z,1.57
2017-09-18T03:43:15.100Z,1.90
2017-09-18T03:45:42.614Z,1.70
2017-09-18T03:48:10.124Z,1.80
2017-09-18T03:50:37.644Z,1.40
2017-09-18T03:53:05.922Z,1.20
2017-09-18T03:55:34.207Z,1.43
2017-09-18T03:58:02.463Z,1.23
2017-09-18T04:00:30.005Z,1.37
2017-09-18T04:02:57.507Z,1.47
2017-09-18T04:05:25.764Z,1.40
2017-09-18T04:07:54.044Z,1.13
2017-09-18T04:10:22.301Z,1.40
2017-09-18T04:12:49.824Z,1.50
2017-09-18T04:15:17.318Z,1.50
2017-09-18T04:17:44.848Z,1.40
2017-09-18T04:20:12.369Z,1.10
2017-09-18T04:22:39.860Z,1.37
2017-09-18T04:25:07.393Z,1.13
2017-09-18T04:27:34.896Z,1.47
2017-09-18T04:30:03.177Z,1.23
2017-09-18T04:32:30.659Z,1.27
2017-09-18T04:34:58.959Z,1.13
2017-09-18T04:37:26.456Z,1.67
2017-09-18T04:39:53.985Z,1.00
2017-09-18T04:42:21.501Z,1.30
2017-09-18T04:44:49.774Z,1.37
2017-09-18T04:47:18.073Z,1.67
2017-09-18T04:49:45.568Z,1.30
2017-09-18T04:52:13.069Z,1.50
2017-09-18T04:54:41.358Z,1.33
2017-09-18T04:57:08.858Z,1.30
2017-09-18T04:59:36.394Z,1.70
2017-09-18T05:02:03.897Z,1.43
2017-09-18T05:04:31.396Z,1.23
2017-09-18T05:06:58.916Z,1.30
2017-09-18T05:09:27.175Z,1.83
2017-09-18T05:11:54.697Z,2.40
2017-09-18T05:14:22.186Z,1.87
2017-09-18T05:16:49.709Z,1.70
2017-09-18T05:19:17.200Z,2.30
2017-09-18T05:21:44.713Z,1.97
2017-09-18T05:24:12.229Z,2.40
2017-09-18T05:26:40.501Z,2.00
2017-09-18T05:29:08.028Z,2.07
2017-09-18T05:31:35.524Z,1.60
2017-09-18T05:34:03.823Z,1.97
2017-09-18T05:36:31.322Z,2.03
2017-09-18T05:38:58.860Z,1.90
2017-09-18T05:41:26.352Z,1.63
2017-09-18T05:43:53.863Z,2.17
2017-09-18T05:46:21.390Z,2.20
2017-09-18T05:48:49.661Z,1.87
2017-09-18T05:51:17.187Z,1.63
2017-09-18T05:53:44.678Z,1.87
2017-09-18T05:56:12.952Z,1.57
2017-09-18T05:58:41.229Z,2.60
2017-09-18T06:01:09.501Z,1.83
2017-09-18T06:03:37.796Z,1.80
2017-09-18T06:06:05.292Z,2.10
2017-09-18T06:08:32.820Z,2.13
2017-09-18T06:11:00.321Z,2.80
2017-09-18T06:13:27.818Z,2.30
2017-09-18T06:15:56.132Z,2.27
2017-09-18T06:18:23.649Z,2.27
2017-09-18T06:20:51.944Z,2.50
2017-09-18T06:23:19.432Z,2.73
2017-09-18T06:25:46.947Z,2.80
2017-09-18T06:28:15.229Z,2.07
2017-09-18T06:30:42.748Z,2.90
2017-09-18T06:33:10.285Z,2.37
2017-09-18T06:35:37.779Z,1.80
2017-09-18T06:38:05.274Z,2.37
2017-09-18T06:40:32.797Z,2.53
2017-09-18T06:43:01.076Z,2.60
2017-09-18T06:45:29.357Z,3.23
2017-09-18T06:47:57.638Z,2.23
2017-09-18T06:50:25.916Z,2.50
2017-09-18T06:52:53.481Z,3.37
2017-09-18T06:55:21.041Z,1.97
2017-09-18T06:57:48.559Z,2.83
2017-09-18T07:00:16.081Z,2.67
2017-09-18T07:02:43.569Z,3.00
2017-09-18T07:05:11.068Z,2.33
2017-09-18T07:07:38.576Z,1.80
2017-09-18T07:10:06.081Z,2.17
2017-09-18T07:12:33.619Z,1.50
2017-09-18T07:15:01.876Z,2.20
2017-09-18T07:17:29.371Z,1.60
2017-09-18T07:19:56.885Z,1.93
2017-09-18T07:22:24.384Z,1.80
2017-09-18T07:24:51.882Z,1.80
2017-09-18T07:27:19.416Z,1.60
2017-09-18T07:29:46.916Z,1.50
2017-09-18T07:32:14.427Z,1.90
2017-09-18T07:34:41.958Z,2.30
2017-09-18T07:37:10.229Z,1.97
2017-09-18T07:39:38.512Z,2.50
2017-09-18T07:42:06.791Z,2.90
2017-09-18T07:44:34.321Z,1.77
2017-09-18T07:47:01.831Z,1.97
2017-09-18T07:49:29.328Z,2.37
2017-09-18T07:51:56.858Z,1.93
2017-09-18T07:54:24.356Z,1.43
2017-09-18T07:56:51.885Z,1.23
2017-09-18T07:59:19.376Z,1.30
2017-09-18T08:01:47.675Z,1.10
2017-09-18T08:04:15.235Z,1.40
2017-09-18T08:06:42.749Z,1.43
2017-09-18T08:09:10.292Z,1.53
2017-09-18T08:11:37.797Z,1.13
2017-09-18T08:14:06.102Z,1.60
2017-09-18T08:16:33.603Z,1.27
2017-09-18T08:19:01.886Z,1.57
2017-09-18T08:21:30.172Z,1.10
2017-09-18T08:23:58.428Z,1.30
2017-09-18T08:26:25.948Z,1.10
2017-09-18T08:28:53.462Z,0.90
2017-09-18T08:31:21.748Z,1.20
2017-09-18T08:33:49.264Z,1.10
2017-09-18T08:36:16.809Z,1.37
2017-09-18T08:38:44.312Z,1.30
2017-09-18T08:41:12.581Z,1.43
2017-09-18T08:43:40.870Z,1.37
2017-09-18T08:46:08.364Z,1.40
2017-09-18T08:48:35.881Z,1.13
2017-09-18T08:51:04.136Z,1.10
2017-09-18T08:53:31.656Z,1.57
2017-09-18T08:55:59.168Z,1.40
2017-09-18T08:58:27.429Z,1.50
2017-09-18T09:00:55.728Z,1.73
2017-09-18T09:03:23.232Z,1.60
2017-09-18T09:05:50.740Z,1.30
2017-09-18T09:08:18.292Z,1.30
2017-09-18T09:10:45.839Z,1.83
2017-09-18T09:13:14.096Z,1.27
2017-09-18T09:15:41.610Z,1.80
2017-09-18T09:18:09.104Z,1.33
2017-09-18T09:20:36.639Z,1.40
2017-09-18T09:23:04.133Z,1.60
2017-09-18T09:25:31.664Z,1.20
2017-09-18T09:27:59.163Z,1.43
2017-09-18T09:30:27.423Z,1.50
2017-09-18T09:32:54.956Z,1.53
2017-09-18T09:35:22.462Z,1.57
2017-09-18T09:37:49.963Z,1.47
2017-09-18T09:40:17.487Z,1.63
2017-09-18T09:42:44.981Z,1.90
2017-09-18T09:45:12.493Z,1.63
2017-09-18T09:47:40.753Z,1.40
2017-09-18T09:50:09.057Z,2.00
2017-09-18T09:52:36.551Z,2.10
2017-09-18T09:55:04.056Z,2.03
2017-09-18T09:57:32.344Z,2.40
2017-09-18T09:59:59.909Z,1.43
2017-09-18T10:02:27.434Z,1.33
2017-09-18T10:04:55.702Z,1.47
2017-09-18T10:07:23.196Z,1.47
2017-09-18T10:09:50.708Z,1.57
2017-09-18T10:12:18.976Z,1.73
2017-09-18T10:14:46.505Z,1.43
2017-09-18T10:17:13.997Z,1.50
2017-09-18T10:19:41.497Z,1.90
2017-09-18T10:22:09.011Z,1.90
2017-09-18T10:24:36.510Z,2.00
2017-09-18T10:27:04.037Z,1.47
2017-09-18T10:29:32.304Z,1.60
2017-09-18T10:31:59.819Z,1.70
2017-09-18T10:34:27.312Z,1.50
2017-09-18T10:36:54.818Z,1.70
2017-09-18T10:39:22.338Z,1.80
2017-09-18T10:41:49.839Z,1.70
2017-09-18T10:44:17.358Z,1.83
2017-09-18T10:46:44.848Z,1.80
2017-09-18T10:49:12.372Z,1.87
2017-09-18T10:51:39.868Z,1.30
2017-09-18T10:54:07.382Z,1.90
2017-09-18T10:56:34.896Z,1.63
2017-09-18T10:59:02.405Z,1.70
2017-09-18T11:01:30.692Z,1.93
2017-09-18T11:03:58.948Z,1.43
2017-09-18T11:06:26.478Z,1.47
2017-09-18T11:08:53.965Z,1.80
2017-09-18T11:11:21.449Z,1.70
2017-09-18T11:13:48.970Z,1.80
2017-09-18T11:16:16.456Z,1.30
2017-09-18T11:18:44.726Z,1.30
2017-09-18T11:21:12.986Z,1.30
2017-09-18T11:23:40.505Z,1.23
2017-09-18T11:26:08.003Z,1.30
2017-09-18T11:28:36.276Z,1.20
2017-09-18T11:31:03.797Z,1.10
2017-09-18T11:33:31.289Z,1.53
2017-09-18T11:35:58.812Z,1.40
2017-09-18T11:38:26.324Z,1.30
2017-09-18T11:40:54.619Z,1.50
2017-09-18T11:43:22.116Z,1.47
2017-09-18T11:45:51.236Z,1.97
2017-09-18T11:48:19.521Z,1.20
2017-09-18T11:50:47.925Z,1.13
2017-09-18T11:53:15.521Z,1.30
2017-09-18T11:55:43.017Z,1.13
2017-09-18T11:58:11.293Z,1.20
2017-09-18T12:00:39.550Z,1.30
2017-09-18T12:03:07.841Z,1.30
2017-09-18T12:05:36.131Z,1.40
2017-09-18T12:08:03.621Z,1.20
2017-09-18T12:10:31.153Z,1.30
2017-09-18T12:12:58.639Z,1.50
2017-09-18T12:15:26.125Z,1.50
2017-09-18T12:17:53.636Z,2.00
2017-09-18T12:20:21.125Z,1.23
2017-09-18T12:22:48.651Z,1.40
2017-09-18T12:25:16.160Z,2.03
2017-09-18T12:27:44.444Z,2.00
2017-09-18T12:30:12.727Z,1.40
2017-09-18T12:32:41.014Z,1.13
2017-09-18T12:35:08.549Z,0.97
2017-09-18T12:37:36.811Z,1.20
2017-09-18T12:40:04.359Z,0.90
2017-09-18T12:42:31.852Z,0.70
2017-09-18T12:45:00.173Z,1.20
2017-09-18T12:47:27.688Z,1.00
2017-09-18T12:49:55.984Z,1.00
2017-09-18T12:52:23.510Z,0.90
2017-09-18T12:54:51.031Z,0.90
2017-09-18T12:57:18.561Z,1.43
2017-09-18T12:59:46.049Z,0.97
2017-09-18T13:02:13.557Z,1.03
2017-09-18T13:04:41.064Z,1.00
2017-09-18T13:07:08.573Z,1.27
2017-09-18T13:09:36.112Z,1.50
2017-09-18T13:12:04.370Z,1.50
2017-09-18T13:14:31.881Z,1.20
2017-09-18T13:16:59.389Z,1.13
2017-09-18T13:19:26.935Z,1.77
2017-09-18T13:21:54.454Z,1.10
2017-09-18T13:24:21.950Z,1.50
2017-09-18T13:26:49.468Z,1.23
2017-09-18T13:29:16.963Z,1.40
2017-09-18T13:31:44.492Z,1.20
2017-09-18T13:34:12.002Z,1.30
2017-09-18T13:36:40.274Z,0.90
2017-09-18T13:39:07.781Z,0.90
2017-09-18T13:41:35.285Z,1.13
2017-09-18T13:44:02.835Z,1.00
2017-09-18T13:46:30.343Z,1.00
2017-09-18T13:48:57.892Z,0.83
2017-09-18T13:51:25.378Z,1.00
2017-09-18T13:53:52.864Z,0.80
2017-09-18T13:56:20.377Z,0.80
2017-09-18T13:58:47.875Z,0.87
2017-09-18T14:01:15.402Z,1.00
2017-09-18T14:03:42.896Z,0.80
2017-09-18T14:06:10.453Z,0.80
2017-09-18T14:08:37.945Z,0.80
2017-09-18T14:11:05.440Z,0.70
2017-09-18T14:13:32.978Z,0.93
2017-09-18T14:16:00.485Z,0.90
2017-09-18T14:18:28.030Z,0.77
2017-09-18T14:20:55.530Z,0.77
2017-09-18T14:23:23.049Z,0.70
2017-09-18T14:25:51.349Z,0.70
2017-09-18T14:28:19.628Z,0.80
2017-09-18T14:30:47.911Z,0.70
2017-09-18T14:33:16.216Z,0.60
2017-09-18T14:35:43.742Z,0.77
2017-09-18T14:38:12.001Z,0.80
2017-09-18T14:40:40.413Z,0.80
2017-09-18T14:43:07.927Z,1.00
2017-09-18T14:45:35.465Z,0.80
2017-09-18T14:48:02.977Z,1.00
2017-09-18T14:50:30.472Z,0.80
2017-09-18T14:52:57.989Z,0.80
2017-09-18T14:55:25.480Z,0.93
2017-09-18T14:57:52.989Z,0.73
2017-09-18T15:00:21.248Z,0.70
2017-09-18T15:02:48.766Z,0.80
2017-09-18T15:05:16.261Z,0.80
2017-09-18T15:07:43.793Z,0.80
2017-09-18T15:10:11.284Z,0.70
2017-09-18T15:12:39.553Z,0.60
2017-09-18T15:15:07.069Z,0.90
2017-09-18T15:17:34.570Z,0.80
2017-09-18T15:20:02.089Z,0.73
2017-09-18T15:22:29.581Z,0.80
2017-09-18T15:24:57.880Z,0.83
2017-09-18T15:27:26.157Z,0.90
2017-09-18T15:29:54.420Z,0.80
2017-09-18T15:32:22.717Z,0.73
2017-09-18T15:34:50.204Z,0.80
2017-09-18T15:37:17.709Z,1.03
2017-09-18T15:39:45.989Z,0.80
2017-09-18T15:42:14.273Z,0.80
2017-09-18T15:44:41.793Z,0.90
2017-09-18T15:47:09.284Z,0.80
2017-09-18T15:49:36.808Z,0.90
2017-09-18T15:52:04.300Z,0.80
2017-09-18T15:54:32.604Z,0.80
2017-09-18T15:57:00.125Z,0.90
2017-09-18T15:59:28.399Z,0.80
2017-09-18T16:01:55.962Z,0.90
2017-09-18T16:04:24.229Z,1.00
2017-09-18T16:06:52.504Z,0.80
2017-09-18T16:09:20.787Z,0.87
2017-09-18T16:11:49.110Z,1.10
2017-09-18T16:14:16.642Z,1.10
2017-09-18T16:16:44.225Z,1.00
2017-09-18T16:19:11.743Z,0.80
2017-09-18T16:21:40.021Z,0.90
2017-09-18T16:24:07.551Z,1.00
2017-09-18T16:26:35.088Z,1.10
2017-09-18T16:29:02.614Z,0.97
2017-09-18T16:31:30.116Z,0.90
2017-09-18T16:33:57.655Z,1.13
2017-09-18T16:36:25.149Z,0.90
2017-09-18T16:38:53.419Z,1.00
2017-09-18T16:41:20.939Z,0.97
2017-09-18T16:43:48.446Z,1.23
2017-09-18T16:46:16.744Z,1.20
2017-09-18T16:48:44.236Z,1.00
2017-09-18T16:51:11.753Z,1.20
2017-09-18T16:53:39.261Z,1.13
2017-09-18T16:56:07.593Z,1.20
2017-09-18T16:58:35.107Z,1.23
2017-09-18T17:01:02.647Z,1.17
2017-09-18T17:03:30.174Z,1.20
2017-09-18T17:05:57.671Z,2.37
2017-09-18T17:08:25.238Z,2.13
2017-09-18T17:10:52.751Z,2.67
2017-09-18T17:13:20.275Z,2.03
2017-09-18T17:15:48.552Z,2.07
2017-09-18T17:18:16.831Z,2.07
2017-09-18T17:20:45.152Z,1.33
2017-09-18T17:23:12.654Z,1.70
2017-09-18T17:25:40.940Z,3.30
2017-09-18T17:28:08.446Z,4.53
2017-09-18T17:30:35.936Z,2.27
2017-09-18T17:33:04.223Z,5.80
2017-09-18T17:35:32.493Z,3.40
2017-09-18T17:38:00.786Z,2.70
2017-09-18T17:40:28.303Z,2.70
2017-09-18T17:42:55.833Z,2.83
2017-09-18T17:45:23.320Z,2.47
2017-09-18T17:47:51.628Z,4.90
2017-09-18T17:50:19.918Z,3.50
2017-09-18T17:52:47.433Z,3.00
2017-09-18T17:55:14.968Z,3.53
2017-09-18T17:57:42.480Z,4.27
2017-09-18T18:00:10.782Z,6.37
2017-09-18T18:02:38.281Z,4.60
2017-09-18T18:05:05.819Z,3.90
2017-09-18T18:07:33.326Z,4.80
2017-09-18T18:10:01.632Z,4.20
2017-09-18T18:12:29.129Z,3.93
2017-09-18T18:14:56.626Z,4.07
2017-09-18T18:17:24.155Z,4.60
2017-09-18T18:19:52.426Z,4.00
2017-09-18T18:22:20.764Z,5.50
2017-09-18T18:24:48.287Z,6.07
2017-09-18T18:27:16.600Z,5.40
2017-09-18T18:29:44.148Z,5.00
2017-09-18T18:32:11.700Z,5.83
2017-09-18T18:34:39.203Z,4.20
2017-09-18T18:37:06.707Z,4.03
2017-09-18T18:39:34.236Z,4.50
2017-09-18T18:42:02.842Z,4.50
2017-09-18T18:44:30.390Z,4.10
2017-09-18T18:46:58.664Z,4.17
2017-09-18T18:49:26.185Z,4.03
2017-09-18T18:51:53.713Z,3.70
2017-09-18T18:54:21.222Z,4.20
2017-09-18T18:56:49.517Z,4.03
2017-09-18T18:59:17.808Z,4.00
2017-09-18T19:01:45.353Z,3.00
2017-09-18T19:04:12.860Z,4.50
2017-09-18T19:06:40.369Z,4.20
2017-09-18T19:09:07.923Z,2.77
2017-09-18T19:11:35.424Z,3.37
2017-09-18T19:14:02.968Z,2.93
2017-09-18T19:16:30.471Z,3.47
2017-09-18T19:19:00.046Z,4.57
2017-09-18T19:21:27.550Z,4.33
2017-09-18T19:23:55.823Z,3.70
2017-09-18T19:26:24.120Z,4.17
2017-09-18T19:28:51.620Z,3.47
2017-09-18T19:31:20.666Z,4.00
2017-09-18T19:33:48.209Z,4.30
2017-09-18T19:36:16.500Z,9.83
2017-09-18T19:38:44.057Z,14.07
2017-09-18T19:41:11.573Z,24.50
2017-09-18T19:43:39.847Z,40.80
2017-09-18T19:46:07.441Z,32.93
2017-09-18T19:48:34.979Z,34.57
2017-09-18T19:51:03.293Z,38.83
2017-09-18T19:53:30.794Z,20.30
2017-09-18T19:55:58.350Z,17.53
2017-09-18T19:58:25.885Z,14.40
2017-09-18T20:00:53.466Z,9.33
2017-09-18T20:03:20.974Z,6.60
2017-09-18T20:05:48.497Z,6.83
2017-09-18T20:08:16.835Z,7.00
2017-09-18T20:10:44.352Z,6.10
2017-09-18T20:13:11.918Z,6.47
2017-09-18T20:15:39.449Z,6.57
2017-09-18T20:18:08.365Z,7.77
2017-09-18T20:20:35.869Z,6.93
2017-09-18T20:23:03.368Z,5.90
2017-09-18T20:25:31.677Z,5.80
2017-09-18T20:27:59.216Z,9.20
2017-09-18T20:30:26.793Z,9.10
2017-09-18T20:32:54.357Z,10.47
2017-09-18T20:35:21.922Z,9.93
2017-09-18T20:37:49.456Z,10.80
2017-09-18T20:40:16.984Z,9.70
2017-09-18T20:42:45.287Z,9.20
2017-09-18T20:45:12.821Z,10.10
2017-09-18T20:47:41.115Z,9.33
2017-09-18T20:50:08.627Z,8.17
2017-09-18T20:52:36.249Z,8.67
2017-09-18T20:55:03.755Z,6.90
2017-09-18T20:57:31.287Z,8.13
2017-09-18T20:59:58.814Z,6.30
2017-09-18T21:02:26.305Z,6.63
2017-09-18T21:04:53.858Z,5.90
2017-09-18T21:07:21.413Z,6.93
2017-09-18T21:09:48.965Z,5.90
2017-09-18T21:12:16.514Z,7.07
2017-09-18T21:14:44.054Z,6.67
2017-09-18T21:17:11.561Z,7.00
2017-09-18T21:19:39.072Z,7.53
2017-09-18T21:22:06.603Z,7.53
2017-09-18T21:24:34.177Z,7.13
2017-09-18T21:27:02.488Z,6.70
2017-09-18T21:29:30.008Z,7.37
2017-09-18T21:31:58.271Z,7.73
2017-09-18T21:34:26.572Z,6.50
2017-09-18T21:36:54.080Z,6.23
2017-09-18T21:39:21.632Z,7.77
2017-09-18T21:41:49.130Z,7.97
2017-09-18T21:44:16.711Z,7.03
2017-09-18T21:46:44.213Z,7.60
2017-09-18T21:49:12.505Z,7.30
2017-09-18T21:51:40.807Z,7.47
2017-09-18T21:54:08.337Z,8.30
2017-09-18T21:56:35.872Z,7.33
2017-09-18T21:59:03.394Z,7.13
2017-09-18T22:01:31.027Z,7.70
2017-09-18T22:03:58.552Z,7.60
2017-09-18T22:06:26.054Z,8.70
2017-09-18T22:08:53.591Z,7.10
2017-09-18T22:14:14.312Z,8.03
2017-09-18T22:16:42.628Z,8.10
2017-09-18T22:19:10.157Z,8.60
2017-09-18T22:21:37.655Z,7.43
2017-09-18T22:24:05.187Z,7.50
2017-09-18T22:26:32.699Z,6.83
2017-09-18T22:29:01.721Z,7.90
2017-09-18T22:31:30.005Z,5.63
2017-09-18T22:33:57.520Z,6.50
2017-09-18T22:36:25.061Z,7.13
2017-09-18T22:38:52.552Z,6.37
2017-09-18T22:41:20.836Z,6.40
2017-09-18T22:43:49.103Z,7.10
2017-09-18T22:46:17.385Z,5.90
2017-09-18T22:48:45.647Z,6.00
2017-09-18T22:51:13.185Z,4.80
2017-09-18T22:53:40.688Z,6.40
2017-09-18T22:56:08.184Z,6.80
2017-09-18T22:58:35.702Z,5.93
2017-09-18T23:01:03.231Z,5.70
2017-09-18T23:03:30.768Z,6.13
2017-09-18T23:05:58.298Z,6.80
2017-09-18T23:08:25.816Z,5.80
2017-09-18T23:10:54.085Z,6.33
2017-09-18T23:13:22.389Z,5.30
2017-09-18T23:15:49.892Z,5.40
2017-09-18T23:18:17.449Z,5.73
2017-09-18T23:20:44.967Z,5.37
2017-09-18T23:23:12.492Z,5.50
2017-09-18T23:25:40.785Z,5.47
2017-09-18T23:28:08.285Z,5.00
2017-09-18T23:30:35.813Z,4.57
2017-09-18T23:33:03.358Z,4.90
2017-09-18T23:35:30.884Z,4.80
2017-09-18T23:37:58.377Z,4.53
2017-09-18T23:40:26.634Z,4.80
2017-09-18T23:42:54.922Z,5.63
2017-09-18T23:45:23.196Z,4.60
2017-09-18T23:47:51.515Z,4.50
2017-09-18T23:50:19.032Z,4.73
2017-09-18T23:52:46.556Z,3.80
2017-09-18T23:55:14.081Z,4.57
2017-09-18T23:57:41.584Z,4.17
